Time;durP1;ratioP1;P1;durP2;ratioP2;P2;SDS_P1;SDS_P2;PMS_P1;PMS_P2;Temp;Humidity;BMP_temperature;BMP_pressure;BME280_temperature;BME280_humidity;BME280_pressure;Samples;Min_cycle;Max_cycle;Signal;HPM_P1;HPM_P2
2023/08/21 00:02:20;;;;;;;2.45;0.77;;;15.80;99.90;;;;;;5012257;28;20079;-68
2023/08/21 00:04:46;;;;;;;5.50;1.00;;;15.70;99.90;;;;;;5030675;28;20474;-69
2023/08/21 00:07:12;;;;;;;9.93;0.68;;;15.70;99.90;;;;;;5049497;28;20411;-69
2023/08/21 00:09:38;;;;;;;0.68;0.68;;;15.70;99.90;;;;;;5015929;28;20084;-69
2023/08/21 00:12:04;;;;;;;1.20;1.20;;;15.70;99.90;;;;;;5049519;28;20118;-69
2023/08/21 00:14:30;;;;;;;4.18;1.00;;;15.70;99.90;;;;;;5049118;28;20044;-69
2023/08/21 00:16:55;;;;;;;1.48;1.10;;;15.60;99.90;;;;;;5029935;28;20500;-69
2023/08/21 00:19:21;;;;;;;4.30;1.40;;;15.60;99.90;;;;;;5048691;28;20048;-69
2023/08/21 00:21:47;;;;;;;2.15;1.70;;;15.60;99.90;;;;;;5040014;28;20457;-69
2023/08/21 00:24:13;;;;;;;1.58;1.48;;;15.60;99.90;;;;;;5068180;28;20130;-69
2023/08/21 00:26:39;;;;;;;5.78;1.00;;;15.60;99.90;;;;;;5076274;28;20048;-69
2023/08/21 00:29:04;;;;;;;1.42;1.33;;;15.60;99.90;;;;;;5068833;28;20087;-68
2023/08/21 00:31:30;;;;;;;1.25;1.20;;;15.60;99.90;;;;;;5069996;28;20054;-69
2023/08/21 00:33:56;;;;;;;2.05;1.05;;;15.60;99.90;;;;;;5050939;28;20144;-68
2023/08/21 00:36:22;;;;;;;2.15;0.98;;;15.50;99.90;;;;;;5069119;28;20127;-69
2023/08/21 00:38:48;;;;;;;1.10;1.00;;;15.50;99.90;;;;;;5050410;28;20040;-69
2023/08/21 00:41:14;;;;;;;14.77;1.02;;;15.50;99.90;;;;;;5069440;28;20565;-68
2023/08/21 00:43:40;;;;;;;14.98;0.60;;;15.50;99.90;;;;;;5068645;28;20461;-68
2023/08/21 00:46:06;;;;;;;7.53;0.40;;;15.40;99.90;;;;;;5034325;28;20881;-68
2023/08/21 00:48:32;;;;;;;0.50;0.50;;;15.40;99.90;;;;;;5049993;28;20079;-68
2023/08/21 00:50:58;;;;;;;0.43;0.43;;;15.40;99.90;;;;;;5083211;28;20049;-68
2023/08/21 00:53:24;;;;;;;0.57;0.57;;;15.40;99.90;;;;;;5067862;28;20037;-68
2023/08/21 00:55:50;;;;;;;0.60;0.60;;;15.40;99.90;;;;;;5066792;28;20538;-68
2023/08/21 00:58:17;;;;;;;1.05;0.60;;;15.30;99.90;;;;;;5040774;28;20079;-68
2023/08/21 01:00:46;;;;;;;3.45;0.88;;;15.30;99.90;;;;;;5032756;28;20033;-68
2023/08/21 01:03:12;;;;;;;7.53;0.90;;;15.30;99.90;;;;;;5066075;28;20072;-68
2023/08/21 01:05:38;;;;;;;2.92;0.40;;;15.20;99.90;;;;;;5066117;28;20491;-68
2023/08/21 01:08:14;;;;;;;0.32;0.32;;;15.20;99.90;;;;;;5065223;28;20052;-67
2023/08/21 01:11:08;;;;;;;0.40;0.40;;;15.20;99.90;;;;;;5068496;28;20120;-68
2023/08/21 01:13:58;;;;;;;2.10;0.40;;;15.10;99.90;;;;;;5065566;28;20135;-68
2023/08/21 01:16:25;;;;;;;0.80;0.43;;;15.10;99.90;;;;;;5073991;28;20037;-68
2023/08/21 01:18:54;;;;;;;0.65;0.32;;;15.10;99.90;;;;;;5041570;28;20476;-68
2023/08/21 01:21:20;;;;;;;0.30;0.30;;;15.10;99.90;;;;;;5061057;28;20045;-68
2023/08/21 01:23:45;;;;;;;0.98;0.60;;;15.00;99.90;;;;;;5073116;28;20044;-69
2023/08/21 01:26:12;;;;;;;1.00;0.95;;;15.10;99.90;;;;;;5059246;28;20079;-68
2023/08/21 01:28:38;;;;;;;0.90;0.70;;;15.00;99.90;;;;;;5055415;28;20048;-68
2023/08/21 01:31:03;;;;;;;3.20;1.00;;;15.00;99.90;;;;;;5023090;28;20059;-68
2023/08/21 01:33:33;;;;;;;5.25;1.20;;;15.00;99.90;;;;;;5058365;28;20033;-68
2023/08/21 01:36:03;;;;;;;3.47;0.70;;;14.90;99.90;;;;;;5048375;28;20045;-68
2023/08/21 01:38:32;;;;;;;0.43;0.32;;;14.90;99.90;;;;;;5054851;28;20098;-68
2023/08/21 01:40:58;;;;;;;0.57;0.50;;;14.90;99.90;;;;;;5046045;28;20044;-68
2023/08/21 01:43:24;;;;;;;3.70;0.60;;;14.90;99.90;;;;;;5063036;28;20040;-68
2023/08/21 01:45:50;;;;;;;0.70;0.70;;;14.90;99.90;;;;;;5044120;28;20066;-68
2023/08/21 01:48:15;;;;;;;0.60;0.60;;;14.90;99.90;;;;;;5058303;28;20112;-68
2023/08/21 01:50:41;;;;;;;1.63;0.90;;;14.80;99.90;;;;;;5024840;28;20428;-69
2023/08/21 01:53:07;;;;;;;1.38;0.75;;;14.90;99.90;;;;;;5054532;28;20444;-68
2023/08/21 01:55:32;;;;;;;1.55;0.88;;;14.80;99.90;;;;;;5067145;28;20032;-68
2023/08/21 01:57:58;;;;;;;0.85;0.80;;;14.80;99.90;;;;;;5050313;28;20052;-68
2023/08/21 02:00:24;;;;;;;1.27;0.57;;;14.80;99.90;;;;;;5034775;28;20115;-68
2023/08/21 02:02:49;;;;;;;0.68;0.40;;;14.80;99.90;;;;;;5054661;28;20051;-68
2023/08/21 02:05:15;;;;;;;6.40;0.43;;;14.80;99.90;;;;;;5059972;28;20049;-68
2023/08/21 02:07:41;;;;;;;7.32;0.80;;;14.80;99.90;;;;;;5065926;28;20119;-68
2023/08/21 02:10:07;;;;;;;3.75;1.15;;;14.80;99.90;;;;;;5064637;28;20394;-68
2023/08/21 02:12:33;;;;;;;1.33;0.40;;;14.70;99.90;;;;;;5065316;28;20044;-68
2023/08/21 02:14:58;;;;;;;2.35;0.70;;;14.70;99.90;;;;;;5038570;28;20050;-68
2023/08/21 02:17:26;;;;;;;0.70;0.70;;;14.70;99.90;;;;;;5061487;28;20045;-68
2023/08/21 02:19:52;;;;;;;7.53;1.38;;;14.60;99.90;;;;;;5061677;28;20052;-67
2023/08/21 02:22:18;;;;;;;52.95;1.52;;;14.60;99.90;;;;;;5042106;28;20151;-68
2023/08/21 02:24:43;;;;;;;40.35;1.13;;;14.60;99.90;;;;;;5059115;28;20037;-68
2023/08/21 02:27:09;;;;;;;13.18;0.75;;;14.60;99.90;;;;;;5044701;28;20076;-68
2023/08/21 02:29:35;;;;;;;28.88;1.02;;;14.60;99.90;;;;;;5053684;28;20040;-68
2023/08/21 02:32:01;;;;;;;58.90;1.52;;;14.60;99.90;;;;;;5037981;28;20045;-68
2023/08/21 02:34:26;;;;;;;3.50;0.73;;;14.60;99.90;;;;;;5061462;28;20827;-68
2023/08/21 02:36:52;;;;;;;1.00;0.60;;;14.50;99.90;;;;;;5063232;28;20045;-68
2023/08/21 02:39:18;;;;;;;2.95;0.90;;;14.40;99.90;;;;;;5049607;28;20045;-68
2023/08/21 02:41:43;;;;;;;42.40;1.20;;;14.40;99.90;;;;;;5031542;28;20071;-68
2023/08/21 02:44:09;;;;;;;4.03;0.50;;;14.40;99.90;;;;;;5028433;28;20498;-68
2023/08/21 02:46:36;;;;;;;0.20;0.20;;;14.40;99.90;;;;;;5064736;28;20037;-68
2023/08/21 02:49:02;;;;;;;1.20;0.73;;;14.30;99.90;;;;;;5029881;28;20103;-68
2023/08/21 02:51:28;;;;;;;3.65;0.80;;;14.40;99.90;;;;;;5059967;28;20041;-68
2023/08/21 02:53:54;;;;;;;0.80;0.80;;;14.30;99.90;;;;;;5061747;28;20037;-67
2023/08/21 02:56:20;;;;;;;1.30;1.25;;;14.30;99.90;;;;;;5061094;28;20497;-68
2023/08/21 02:58:45;;;;;;;3.85;0.65;;;14.30;99.90;;;;;;5065589;28;20652;-68
2023/08/21 03:01:11;;;;;;;1.65;0.70;;;14.30;99.90;;;;;;5056453;28;20044;-68
2023/08/21 03:03:37;;;;;;;2.10;0.60;;;14.30;99.90;;;;;;5050423;28;20044;-67
2023/08/21 03:06:04;;;;;;;1.77;0.88;;;14.30;99.90;;;;;;5050392;28;20040;-67
2023/08/21 03:08:30;;;;;;;1.05;0.52;;;14.40;99.90;;;;;;5052835;28;20048;-67
2023/08/21 03:10:55;;;;;;;0.40;0.40;;;14.20;99.90;;;;;;5065910;28;20036;-67
2023/08/21 03:13:21;;;;;;;1.20;0.93;;;14.10;99.90;;;;;;5046117;28;20040;-67
2023/08/21 03:15:47;;;;;;;8.25;0.90;;;14.10;99.90;;;;;;5059838;28;20052;-67
2023/08/21 03:18:13;;;;;;;6.43;0.60;;;14.10;99.90;;;;;;5062717;28;20085;-67
2023/08/21 03:20:43;;;;;;;5.05;0.40;;;14.00;99.90;;;;;;5045946;28;20040;-67
2023/08/21 03:23:09;;;;;;;0.60;0.30;;;14.00;99.90;;;;;;5058805;28;20449;-67
2023/08/21 03:25:35;;;;;;;0.30;0.30;;;14.00;99.90;;;;;;5017735;28;20045;-67
2023/08/21 03:28:01;;;;;;;1.13;0.20;;;14.00;99.90;;;;;;5036731;28;20048;-67
2023/08/21 03:30:26;;;;;;;1.25;0.30;;;13.90;99.90;;;;;;5031051;28;20048;-67
2023/08/21 03:32:52;;;;;;;0.30;0.30;;;13.90;99.90;;;;;;5017899;28;20040;-67
2023/08/21 03:35:18;;;;;;;2.90;0.30;;;13.90;99.90;;;;;;5040788;28;20546;-67
2023/08/21 03:37:43;;;;;;;0.52;0.25;;;13.90;99.90;;;;;;5055069;28;20086;-67
2023/08/21 03:40:09;;;;;;;0.35;0.30;;;13.80;99.90;;;;;;5064205;28;20474;-67
2023/08/21 03:42:35;;;;;;;0.30;0.30;;;13.80;99.90;;;;;;5064369;28;20049;-67
2023/08/21 03:45:03;;;;;;;0.40;0.40;;;13.80;99.90;;;;;;5064147;28;20118;-67
2023/08/21 03:47:29;;;;;;;0.40;0.40;;;13.80;99.90;;;;;;5065650;28;20202;-67
2023/08/21 03:49:55;;;;;;;1.48;0.60;;;13.80;99.90;;;;;;5062827;28;20535;-67
2023/08/21 03:52:20;;;;;;;0.50;0.50;;;13.80;99.90;;;;;;5061878;28;20044;-68
2023/08/21 03:54:46;;;;;;;2.15;0.60;;;13.80;99.90;;;;;;5041437;28;20505;-67
2023/08/21 03:57:12;;;;;;;3.45;0.60;;;13.90;99.90;;;;;;5064528;28;20048;-67
2023/08/21 03:59:38;;;;;;;23.83;0.95;;;13.90;99.90;;;;;;5034673;28;20094;-67
2023/08/21 04:02:04;;;;;;;2.42;0.60;;;13.80;99.90;;;;;;5069018;28;20471;-68
2023/08/21 04:04:29;;;;;;;14.73;1.02;;;13.90;99.90;;;;;;5054580;28;20491;-67
2023/08/21 04:06:55;;;;;;;0.77;0.63;;;13.90;99.90;;;;;;5062549;28;20119;-67
2023/08/21 04:09:21;;;;;;;4.35;0.77;;;13.80;99.90;;;;;;5052322;28;20453;-67
2023/08/21 04:11:47;;;;;;;7.05;0.70;;;13.80;99.90;;;;;;5074681;28;20051;-67
2023/08/21 04:14:12;;;;;;;6.22;0.60;;;13.80;99.90;;;;;;5066293;28;20095;-67
2023/08/21 04:16:38;;;;;;;0.95;0.63;;;13.80;99.90;;;;;;5065575;28;20029;-67
2023/08/21 04:19:05;;;;;;;0.60;0.60;;;13.80;99.90;;;;;;5065483;28;20086;-67
2023/08/21 04:21:31;;;;;;;2.10;0.60;;;13.80;99.90;;;;;;5062579;28;20040;-67
2023/08/21 04:23:56;;;;;;;0.50;0.50;;;13.80;99.90;;;;;;5056274;28;20057;-66
2023/08/21 04:26:22;;;;;;;0.70;0.65;;;13.80;99.90;;;;;;5040805;28;20044;-67
2023/08/21 04:28:48;;;;;;;0.50;0.50;;;13.80;99.90;;;;;;5065342;28;20067;-67
2023/08/21 04:31:13;;;;;;;0.50;0.50;;;13.70;99.90;;;;;;5059646;28;20879;-66
2023/08/21 04:33:39;;;;;;;2.72;0.70;;;13.70;99.90;;;;;;5050110;28;20036;-67
2023/08/21 04:36:05;;;;;;;0.93;0.50;;;13.70;99.90;;;;;;5031870;28;20494;-67
2023/08/21 04:38:31;;;;;;;0.75;0.60;;;13.70;99.90;;;;;;5059714;28;20036;-66
2023/08/21 04:41:05;;;;;;;2.28;0.70;;;13.70;99.90;;;;;;5066908;28;20494;-67
2023/08/21 04:43:30;;;;;;;0.90;0.50;;;13.60;99.90;;;;;;5074034;28;20068;-66
2023/08/21 04:45:56;;;;;;;1.05;0.70;;;13.60;99.90;;;;;;5051918;28;20072;-66
2023/08/21 04:48:22;;;;;;;0.60;0.60;;;13.60;99.90;;;;;;5048797;28;20044;-66
2023/08/21 04:50:48;;;;;;;0.82;0.60;;;13.70;99.90;;;;;;5058999;28;20090;-66
2023/08/21 04:53:14;;;;;;;0.68;0.68;;;13.70;99.90;;;;;;5038139;28;20048;-67
2023/08/21 04:55:40;;;;;;;0.57;0.57;;;13.70;99.90;;;;;;5039893;28;20502;-67
2023/08/21 04:58:07;;;;;;;0.80;0.70;;;13.80;99.90;;;;;;5036240;28;20041;-66
2023/08/21 05:00:33;;;;;;;0.75;0.60;;;13.80;99.90;;;;;;5048999;28;20040;-67
2023/08/21 05:02:59;;;;;;;0.57;0.57;;;13.80;99.90;;;;;;5039963;28;20064;-66
2023/08/21 05:05:25;;;;;;;1.65;1.00;;;13.80;99.90;;;;;;5051457;28;20052;-66
2023/08/21 05:07:53;;;;;;;3.35;1.20;;;13.90;99.90;;;;;;5048657;28;20037;-66
2023/08/21 05:10:19;;;;;;;1.60;1.30;;;13.80;99.90;;;;;;5048377;28;20041;-66
2023/08/21 05:12:51;;;;;;;3.38;1.50;;;13.80;99.90;;;;;;5048959;28;20045;-66
2023/08/21 05:15:16;;;;;;;4.45;1.30;;;13.90;99.90;;;;;;5064493;28;20049;-66
2023/08/21 05:17:42;;;;;;;7.78;1.73;;;14.00;99.90;;;;;;5042106;28;20037;-66
2023/08/21 05:20:08;;;;;;;4.18;1.55;;;14.00;99.90;;;;;;5061459;28;20036;-66
2023/08/21 05:22:34;;;;;;;3.50;1.70;;;14.10;99.90;;;;;;5054529;28;20053;-67
2023/08/21 05:25:00;;;;;;;1.40;1.20;;;14.10;99.90;;;;;;5064751;28;20595;-66
2023/08/21 05:27:26;;;;;;;2.85;1.42;;;14.20;99.90;;;;;;5050707;28;20083;-67
2023/08/21 05:29:52;;;;;;;4.38;1.42;;;14.20;99.90;;;;;;5053509;28;20155;-66
2023/08/21 05:32:18;;;;;;;4.68;1.58;;;14.30;99.90;;;;;;5049829;28;20127;-66
2023/08/21 05:34:44;;;;;;;6.55;1.60;;;14.30;99.90;;;;;;5059556;28;20048;-66
2023/08/21 05:37:10;;;;;;;3.92;1.70;;;14.40;99.90;;;;;;5040916;28;20045;-66
2023/08/21 05:39:36;;;;;;;6.00;1.70;;;14.40;99.90;;;;;;5051669;28;20048;-66
2023/08/21 05:42:03;;;;;;;4.32;2.38;;;14.50;99.90;;;;;;5033793;28;20065;-66
2023/08/21 05:44:29;;;;;;;7.60;1.60;;;14.50;99.90;;;;;;5030110;28;20059;-66
2023/08/21 05:46:55;;;;;;;4.40;1.95;;;14.60;99.90;;;;;;5048168;28;20037;-67
2023/08/21 05:49:21;;;;;;;5.97;2.20;;;14.70;99.90;;;;;;5028352;28;20495;-66
2023/08/21 05:51:46;;;;;;;8.10;2.15;;;14.70;99.90;;;;;;5043137;28;20044;-66
2023/08/21 05:54:12;;;;;;;6.53;2.00;;;14.80;99.90;;;;;;5063710;28;20036;-66
2023/08/21 05:56:38;;;;;;;3.92;2.25;;;15.00;99.90;;;;;;5062244;28;20048;-67
2023/08/21 05:59:04;;;;;;;5.75;2.08;;;15.00;99.90;;;;;;5060847;28;20478;-67
2023/08/21 06:01:30;;;;;;;6.32;2.15;;;15.10;99.90;;;;;;5043722;28;20044;-67
2023/08/21 06:03:56;;;;;;;9.18;2.70;;;15.20;99.90;;;;;;5042875;28;20044;-67
2023/08/21 06:06:21;;;;;;;3.60;2.20;;;15.30;99.90;;;;;;5056657;28;20040;-67
2023/08/21 06:08:48;;;;;;;7.90;2.65;;;15.40;99.90;;;;;;5062628;28;20072;-67
2023/08/21 06:11:14;;;;;;;6.90;2.67;;;15.40;99.90;;;;;;5052240;28;20048;-67
2023/08/21 06:13:40;;;;;;;5.93;2.30;;;15.60;99.90;;;;;;5053594;28;20510;-67
2023/08/21 06:16:06;;;;;;;6.97;2.15;;;15.60;99.90;;;;;;5031078;28;20047;-67
2023/08/21 06:18:31;;;;;;;11.05;2.88;;;15.70;99.90;;;;;;5063712;28;20471;-67
2023/08/21 06:20:57;;;;;;;8.93;2.58;;;15.80;99.90;;;;;;5045022;28;20523;-67
2023/08/21 06:23:23;;;;;;;8.48;2.70;;;15.90;99.90;;;;;;4898941;28;3665291;-67
2023/08/21 06:25:49;;;;;;;6.30;2.50;;;15.90;99.90;;;;;;5035421;28;20045;-67
2023/08/21 06:28:15;;;;;;;6.22;2.38;;;16.00;99.90;;;;;;5040516;28;20075;-68
2023/08/21 06:30:41;;;;;;;8.32;2.72;;;16.10;99.90;;;;;;5014942;28;20107;-67
2023/08/21 06:33:07;;;;;;;11.00;3.03;;;16.20;99.90;;;;;;5018980;28;20399;-67
2023/08/21 06:35:36;;;;;;;8.20;3.10;;;16.30;99.90;;;;;;5039909;28;20458;-67
2023/08/21 06:38:02;;;;;;;8.20;2.65;;;16.40;99.90;;;;;;5036505;28;20080;-67
2023/08/21 06:40:28;;;;;;;8.77;3.15;;;16.40;99.90;;;;;;5028631;28;20069;-67
2023/08/21 06:42:53;;;;;;;10.15;2.70;;;16.50;99.90;;;;;;5027293;28;20038;-67
2023/08/21 06:45:19;;;;;;;6.68;3.05;;;16.60;99.90;;;;;;5031771;28;20041;-67
2023/08/21 06:47:45;;;;;;;8.73;2.90;;;16.70;99.90;;;;;;5027088;28;20420;-68
2023/08/21 06:50:11;;;;;;;7.45;2.35;;;16.80;99.90;;;;;;4993414;28;20045;-68
2023/08/21 06:52:37;;;;;;;10.73;3.25;;;16.90;99.90;;;;;;5036069;28;20521;-68
2023/08/21 06:55:02;;;;;;;7.90;2.97;;;17.00;99.90;;;;;;5024301;28;20492;-68
2023/08/21 06:57:28;;;;;;;5.28;2.65;;;17.10;99.90;;;;;;5024616;28;20088;-69
2023/08/21 06:59:54;;;;;;;12.60;2.65;;;17.10;99.90;;;;;;5019083;28;20041;-68
2023/08/21 07:02:20;;;;;;;8.18;2.72;;;17.30;99.90;;;;;;5045255;28;20041;-69
2023/08/21 07:04:45;;;;;;;8.40;2.58;;;17.40;99.90;;;;;;5033285;28;20053;-69
2023/08/21 07:07:11;;;;;;;7.63;2.72;;;17.60;99.90;;;;;;5037107;28;20467;-68
2023/08/21 07:09:37;;;;;;;7.90;2.45;;;17.80;99.90;;;;;;5012113;28;20044;-68
2023/08/21 07:12:03;;;;;;;7.63;2.47;;;18.00;99.90;;;;;;5038960;28;20045;-68
2023/08/21 07:14:29;;;;;;;7.38;1.90;;;18.30;99.90;;;;;;5042643;28;20391;-69
2023/08/21 07:16:54;;;;;;;5.20;1.52;;;18.60;99.90;;;;;;5023861;28;20053;-69
2023/08/21 07:19:20;;;;;;;10.00;2.20;;;19.00;99.90;;;;;;5037532;28;20125;-69
2023/08/21 07:21:46;;;;;;;6.35;1.52;;;19.20;99.90;;;;;;5042606;28;20076;-69
2023/08/21 07:24:11;;;;;;;12.25;1.52;;;19.50;99.90;;;;;;5033548;28;20045;-68
2023/08/21 07:26:37;;;;;;;4.20;1.23;;;19.80;99.90;;;;;;5018268;28;20091;-69
2023/08/21 07:29:04;;;;;;;6.35;1.20;;;20.00;99.90;;;;;;5033131;28;20396;-69
2023/08/21 07:31:30;;;;;;;5.60;1.50;;;20.40;99.90;;;;;;5036914;28;20487;-69
2023/08/21 07:33:56;;;;;;;4.75;1.00;;;20.60;99.90;;;;;;5023415;28;20448;-68
2023/08/21 07:36:22;;;;;;;4.25;1.17;;;20.90;99.90;;;;;;5052240;28;20083;-69
2023/08/21 07:38:47;;;;;;;5.90;0.90;;;21.10;99.90;;;;;;5032066;28;20395;-69
2023/08/21 07:41:13;;;;;;;2.47;0.90;;;21.30;99.90;;;;;;5048949;28;20049;-69
2023/08/21 07:43:44;;;;;;;3.58;0.80;;;21.60;99.90;;;;;;5034806;28;20036;-68
2023/08/21 07:46:13;;;;;;;2.40;0.90;;;21.80;99.90;;;;;;5049018;28;20033;-68
2023/08/21 07:48:40;;;;;;;2.72;0.80;;;22.00;99.90;;;;;;5040360;28;20041;-69
2023/08/21 07:51:06;;;;;;;4.38;0.63;;;22.30;99.90;;;;;;5038200;28;20080;-69
2023/08/21 07:53:34;;;;;;;1.70;0.73;;;22.40;99.90;;;;;;5044972;28;20044;-68
2023/08/21 07:56:00;;;;;;;1.77;0.68;;;22.70;99.90;;;;;;5053606;28;20091;-68
2023/08/21 07:58:26;;;;;;;5.07;1.10;;;22.90;99.90;;;;;;5033853;28;20054;-69
2023/08/21 08:00:52;;;;;;;4.70;0.75;;;23.10;99.90;;;;;;5040225;28;20195;-68
2023/08/21 08:03:18;;;;;;;7.50;1.30;;;23.20;99.90;;;;;;5042483;28;20546;-68
2023/08/21 08:05:44;;;;;;;4.97;0.93;;;23.40;97.90;;;;;;5037059;28;20056;-68
2023/08/21 08:08:10;;;;;;;2.95;0.90;;;23.60;96.90;;;;;;5040247;28;20041;-68
2023/08/21 08:10:40;;;;;;;10.60;1.00;;;23.70;93.60;;;;;;5042615;28;20052;-68
2023/08/21 08:13:06;;;;;;;4.80;1.60;;;23.80;94.30;;;;;;5021123;28;20060;-68
2023/08/21 08:15:34;;;;;;;3.13;0.90;;;24.00;82.70;;;;;;5055955;28;20139;-68
2023/08/21 08:17:59;;;;;;;2.13;0.73;;;24.20;72.90;;;;;;5047779;28;20453;-69
2023/08/21 08:20:25;;;;;;;2.72;0.70;;;24.20;56.20;;;;;;5001287;28;20082;-68
2023/08/21 08:22:51;;;;;;;4.45;1.15;;;24.40;36.70;;;;;;5059499;28;20661;-68
2023/08/21 08:25:17;;;;;;;3.83;1.00;;;24.50;21.50;;;;;;5068962;28;20106;-68
2023/08/21 08:27:44;;;;;;;2.65;0.82;;;24.60;17.90;;;;;;5042396;28;20436;-69
2023/08/21 08:30:10;;;;;;;7.05;1.10;;;24.70;16.80;;;;;;5050824;28;20359;-68
2023/08/21 08:32:36;;;;;;;2.90;1.10;;;24.80;5.00;;;;;;5036378;28;20037;-68
2023/08/21 08:35:03;;;;;;;3.05;0.80;;;24.80;1.00;;;;;;5063242;28;20568;-69
2023/08/21 08:37:28;;;;;;;5.15;1.05;;;24.90;1.40;;;;;;5040920;28;20076;-68
2023/08/21 08:39:54;;;;;;;3.00;0.85;;;25.00;1.00;;;;;;5042263;28;20079;-68
2023/08/21 08:42:20;;;;;;;4.85;0.95;;;25.10;1.00;;;;;;5055455;28;20045;-68
2023/08/21 08:44:47;;;;;;;3.72;0.70;;;25.20;1.00;;;;;;5063947;28;20051;-68
2023/08/21 08:47:14;;;;;;;3.50;0.75;;;25.30;1.00;;;;;;5061838;28;20083;-68
2023/08/21 08:49:40;;;;;;;1.63;0.90;;;25.30;1.00;;;;;;5065300;28;20047;-67
2023/08/21 08:52:07;;;;;;;4.03;0.90;;;25.30;1.00;;;;;;5049500;28;20490;-68
2023/08/21 08:54:35;;;;;;;2.60;0.80;;;25.30;1.00;;;;;;5059347;28;20041;-68
2023/08/21 08:57:01;;;;;;;3.13;0.75;;;25.40;1.00;;;;;;5051564;28;20076;-68
2023/08/21 08:59:30;;;;;;;6.00;1.48;;;25.50;1.00;;;;;;5074585;28;20529;-68
2023/08/21 09:01:56;;;;;;;4.20;0.70;;;25.50;1.00;;;;;;5047769;28;20063;-68
2023/08/21 09:04:22;;;;;;;2.85;0.80;;;25.60;1.00;;;;;;5050945;28;20084;-68
2023/08/21 09:06:48;;;;;;;1.95;0.50;;;25.60;1.00;;;;;;5062259;28;20498;-68
2023/08/21 09:09:14;;;;;;;4.15;0.60;;;25.70;1.00;;;;;;5041507;28;20041;-68
2023/08/21 09:11:45;;;;;;;2.15;0.80;;;25.70;1.00;;;;;;5045757;28;20081;-68
2023/08/21 09:14:11;;;;;;;2.47;0.60;;;25.80;1.00;;;;;;5066844;28;21343;-69
2023/08/21 09:16:37;;;;;;;3.45;0.90;;;25.80;1.00;;;;;;5075236;28;20042;-68
2023/08/21 09:19:03;;;;;;;1.83;0.50;;;25.80;1.00;;;;;;5053994;28;20037;-67
2023/08/21 09:21:29;;;;;;;4.18;0.80;;;25.80;1.00;;;;;;5045123;28;20048;-68
2023/08/21 09:24:04;;;;;;;3.83;0.73;;;25.90;1.00;;;;;;5066711;28;20117;-68
2023/08/21 09:26:34;;;;;;;2.92;0.80;;;25.90;1.00;;;;;;5054169;28;20075;-68
2023/08/21 09:29:04;;;;;;;1.60;0.68;;;26.00;1.00;;;;;;5062960;28;20037;-68
2023/08/21 09:31:33;;;;;;;2.92;0.57;;;26.00;1.00;;;;;;5077517;28;20601;-69
2023/08/21 09:34:04;;;;;;;1.05;0.45;;;26.00;1.00;;;;;;5034733;28;20116;-69
2023/08/21 09:36:31;;;;;;;1.42;0.60;;;26.00;1.00;;;;;;5045839;28;20454;-69
2023/08/21 09:38:57;;;;;;;2.40;0.60;;;26.00;1.00;;;;;;5065856;28;20146;-67
2023/08/21 09:41:24;;;;;;;1.65;0.55;;;25.90;1.00;;;;;;5062194;28;20451;-69
2023/08/21 09:43:50;;;;;;;0.85;0.50;;;25.90;1.00;;;;;;5038054;28;22275;-69
2023/08/21 09:46:26;;;;;;;2.97;0.80;;;25.90;1.00;;;;;;5065697;28;20131;-69
2023/08/21 09:48:53;;;;;;;1.88;0.60;;;25.90;1.00;;;;;;5062226;28;20037;-69
2023/08/21 09:51:20;;;;;;;2.25;0.77;;;26.00;1.00;;;;;;5039882;28;20040;-69
2023/08/21 09:53:50;;;;;;;3.92;0.68;;;26.00;1.00;;;;;;5066706;28;20059;-69
2023/08/21 09:56:20;;;;;;;1.30;0.50;;;26.00;1.00;;;;;;5060562;28;20047;-69
2023/08/21 09:58:48;;;;;;;2.90;0.60;;;26.00;1.00;;;;;;5063931;28;20085;-68
2023/08/21 10:01:16;;;;;;;1.08;0.43;;;26.00;1.00;;;;;;5063097;28;20045;-68
2023/08/21 10:03:47;;;;;;;2.55;0.68;;;26.00;1.00;;;;;;5058990;28;20490;-67
2023/08/21 10:06:19;;;;;;;3.60;0.57;;;26.00;1.00;;;;;;5036011;28;20044;-67
2023/08/21 10:08:48;;;;;;;1.40;0.70;;;26.10;1.00;;;;;;5044807;28;20044;-68
2023/08/21 10:11:15;;;;;;;;;;;26.20;1.00;;;;;;5034140;28;20166;-67
2023/08/21 10:13:41;;;;;;;2.47;0.60;;;26.30;1.00;;;;;;5051632;28;19924;-67
2023/08/21 10:16:07;;;;;;;0.60;0.52;;;26.30;1.00;;;;;;5039110;28;20391;-69
2023/08/21 10:18:35;;;;;;;2.15;0.60;;;26.50;1.00;;;;;;5020498;28;20037;-67
2023/08/21 10:21:21;;;;;;;1.00;0.40;;;26.50;1.00;;;;;;5065641;28;20048;-67
2023/08/21 10:23:49;;;;;;;1.58;0.50;;;26.60;1.00;;;;;;5057948;28;20521;-67
2023/08/21 10:26:21;;;;;;;4.53;0.88;;;26.60;1.00;;;;;;5058313;28;20044;-68
2023/08/21 10:29:02;;;;;;;1.67;0.38;;;26.70;1.00;;;;;;5052062;28;20076;-67
2023/08/21 10:31:35;;;;;;;3.60;0.50;;;26.70;1.00;;;;;;5055914;28;20041;-68
2023/08/21 10:34:09;;;;;;;7.25;0.77;;;26.70;1.00;;;;;;5033215;28;20431;-67
2023/08/21 10:36:42;;;;;;;1.23;0.50;;;26.80;1.00;;;;;;5055653;28;20048;-68
2023/08/21 10:39:33;;;;;;;0.95;0.30;;;26.80;1.00;;;;;;5057803;28;20076;-67
2023/08/21 10:42:14;;;;;;;0.55;0.38;;;26.80;1.00;;;;;;5057760;28;20126;-68
2023/08/21 10:44:43;;;;;;;1.35;0.70;;;26.80;1.00;;;;;;5034795;28;20098;-68
2023/08/21 10:47:17;;;;;;;2.13;0.70;;;26.90;1.00;;;;;;5056327;28;20049;-68
2023/08/21 10:49:54;;;;;;;1.27;0.45;;;26.90;1.00;;;;;;5062235;28;20056;-67
2023/08/21 10:52:23;;;;;;;0.70;0.40;;;26.90;1.00;;;;;;5038797;28;20049;-68
2023/08/21 10:54:51;;;;;;;2.45;0.55;;;26.90;1.00;;;;;;5065900;28;20040;-66
2023/08/21 10:57:17;;;;;;;2.83;0.55;;;26.90;1.00;;;;;;5062656;28;20102;-67
2023/08/21 10:59:56;;;;;;;0.45;0.28;;;26.80;1.00;;;;;;5059008;28;20044;-67
2023/08/21 11:02:23;;;;;;;0.35;0.30;;;26.90;1.00;;;;;;5063461;28;20405;-67
2023/08/21 11:04:50;;;;;;;1.35;0.52;;;26.90;1.00;;;;;;5039882;28;20134;-67
2023/08/21 11:07:15;;;;;;;4.00;0.63;;;26.80;1.00;;;;;;5052275;28;20112;-67
2023/08/21 11:09:42;;;;;;;1.70;0.60;;;26.80;1.00;;;;;;5058634;28;20752;-68
2023/08/21 11:12:23;;;;;;;1.42;0.77;;;26.80;1.00;;;;;;5059445;28;20134;-67
2023/08/21 11:14:49;;;;;;;1.98;0.50;;;26.90;1.00;;;;;;5064134;28;20044;-67
2023/08/21 11:17:15;;;;;;;2.05;0.60;;;26.90;1.00;;;;;;5038455;28;20041;-67
2023/08/21 11:19:41;;;;;;;2.67;0.60;;;26.90;1.00;;;;;;5062755;28;20051;-68
2023/08/21 11:22:08;;;;;;;2.47;1.02;;;26.80;1.00;;;;;;5056074;28;20041;-67
2023/08/21 11:24:37;;;;;;;4.43;0.80;;;26.80;1.00;;;;;;5035098;28;20549;-67
2023/08/21 11:27:10;;;;;;;2.72;0.77;;;26.80;1.00;;;;;;5055516;28;20576;-67
2023/08/21 11:29:41;;;;;;;1.60;0.50;;;26.90;1.00;;;;;;5049637;28;20040;-67
2023/08/21 11:32:13;;;;;;;1.67;0.40;;;26.70;1.00;;;;;;5058639;28;20061;-68
2023/08/21 11:34:41;;;;;;;1.17;0.50;;;26.70;1.00;;;;;;5064660;28;20060;-67
2023/08/21 11:37:06;;;;;;;3.15;0.70;;;26.70;1.00;;;;;;5061905;28;20045;-67
2023/08/21 11:39:43;;;;;;;1.23;0.60;;;26.70;1.00;;;;;;5066494;28;20111;-67
2023/08/21 11:42:13;;;;;;;2.40;0.73;;;26.80;1.00;;;;;;5064527;28;20041;-67
2023/08/21 11:44:41;;;;;;;1.80;0.65;;;26.90;1.00;;;;;;5063635;28;20064;-67
2023/08/21 11:47:08;;;;;;;0.93;0.32;;;27.00;1.00;;;;;;5063822;28;20136;-68
2023/08/21 11:49:37;;;;;;;2.30;0.70;;;27.10;1.00;;;;;;5062781;28;20049;-68
2023/08/21 11:52:03;;;;;;;;;;;27.20;1.00;;;;;;5065997;28;20124;-68
2023/08/21 11:54:36;;;;;;;0.93;0.50;;;27.30;1.00;;;;;;5049228;28;20343;-67
2023/08/21 11:57:21;;;;;;;2.60;0.73;;;27.20;1.00;;;;;;5065295;28;20478;-69
2023/08/21 11:59:54;;;;;;;1.75;0.40;;;27.00;1.00;;;;;;5045818;28;20091;-68
2023/08/21 12:02:27;;;;;;;3.45;0.50;;;26.90;1.00;;;;;;5054369;28;20570;-68
2023/08/21 12:05:05;;;;;;;2.15;0.50;;;26.80;1.00;;;;;;5046717;28;20521;-68
2023/08/21 12:07:31;;;;;;;1.23;0.63;;;26.80;1.00;;;;;;5057995;28;20120;-68
2023/08/21 12:09:57;;;;;;;1.77;0.80;;;26.70;1.00;;;;;;5032323;28;20041;-68
2023/08/21 12:12:23;;;;;;;0.52;0.40;;;26.60;1.00;;;;;;5060292;28;20076;-68
2023/08/21 12:14:49;;;;;;;0.77;0.40;;;26.50;1.00;;;;;;5064839;28;20040;-68
2023/08/21 12:17:15;;;;;;;2.53;0.50;;;26.50;1.00;;;;;;5061701;28;20037;-67
2023/08/21 12:19:41;;;;;;;3.60;0.95;;;26.30;1.00;;;;;;5063447;28;20046;-68
2023/08/21 12:22:08;;;;;;;1.55;0.70;;;26.30;1.00;;;;;;5059620;28;20037;-67
2023/08/21 12:24:34;;;;;;;1.15;0.50;;;26.20;1.00;;;;;;5064863;28;20088;-68
2023/08/21 12:27:00;;;;;;;1.98;0.70;;;26.10;1.00;;;;;;5061453;28;20104;-68
2023/08/21 12:29:25;;;;;;;1.08;0.50;;;25.90;1.00;;;;;;5055854;28;20041;-67
2023/08/21 12:31:51;;;;;;;1.55;0.40;;;25.70;1.00;;;;;;5065230;28;20079;-68
2023/08/21 12:34:17;;;;;;;3.72;0.50;;;25.50;1.00;;;;;;5061954;28;20123;-69
2023/08/21 12:36:42;;;;;;;1.30;0.65;;;25.40;1.00;;;;;;5066154;28;20049;-68
2023/08/21 12:39:08;;;;;;;1.15;0.55;;;25.40;1.00;;;;;;5054927;28;20075;-68
2023/08/21 12:41:34;;;;;;;0.55;0.40;;;25.50;1.00;;;;;;5070914;28;20044;-68
2023/08/21 12:44:02;;;;;;;3.03;0.70;;;25.50;1.00;;;;;;5072916;28;20166;-67
2023/08/21 12:46:29;;;;;;;1.67;0.57;;;25.60;1.00;;;;;;5063703;28;20081;-67
2023/08/21 12:48:55;;;;;;;2.05;0.63;;;25.80;1.00;;;;;;5075765;28;20339;-70
2023/08/21 12:51:21;;;;;;;0.80;0.60;;;26.00;1.00;;;;;;5038363;28;20414;-70